Time;durP1;ratioP1;P1;durP2;ratioP2;P2;SDS_P1;SDS_P2;PMS_P1;PMS_P2;Temp;Humidity;BMP_temperature;BMP_pressure;BME280_temperature;BME280_humidity;BME280_pressure;Samples;Min_cycle;Max_cycle;Signal;HPM_P1;HPM_P2
2021/08/16 00:02:08;;;;;;;8.50;6.07;;;;;;;23.06;67.72;101121.34;4962384;28;103925;-58
2021/08/16 00:04:35;;;;;;;6.85;5.97;;;;;;;23.07;67.41;101127.72;4965916;28;102890;-58
2021/08/16 00:07:04;;;;;;;7.30;6.07;;;;;;;23.07;67.49;101122.16;4965807;28;102615;-58
2021/08/16 00:09:31;;;;;;;9.30;6.43;;;;;;;23.06;67.43;101126.91;4962521;28;102310;-58
2021/08/16 00:11:57;;;;;;;7.05;6.20;;;;;;;23.06;67.65;101121.34;4959227;28;104081;-59
2021/08/16 00:14:30;;;;;;;7.45;6.15;;;;;;;23.06;67.60;101132.47;4960456;28;103338;-58
2021/08/16 00:16:57;;;;;;;7.07;6.32;;;;;;;23.06;67.56;101123.34;4958335;28;102636;-58
2021/08/16 00:19:25;;;;;;;7.60;5.57;;;;;;;23.06;67.62;101129.69;4966548;28;102749;-58
2021/08/16 00:21:52;;;;;;;6.93;6.22;;;;;;;23.06;67.52;101124.13;4966680;28;104048;-58
2021/08/16 00:24:21;;;;;;;8.30;6.30;;;;;;;23.06;67.64;101115.81;4961733;28;102723;-58
2021/08/16 00:26:49;;;;;;;6.70;5.95;;;;;;;23.05;67.42;101119.75;4958996;28;102135;-58
2021/08/16 00:29:17;;;;;;;8.05;6.40;;;;;;;23.05;67.52;101118.94;4962591;28;102335;-58
2021/08/16 00:31:45;;;;;;;7.45;5.93;;;;;;;23.05;67.85;101125.31;4971156;28;104096;-58
2021/08/16 00:34:11;;;;;;;6.78;5.95;;;;;;;23.05;67.83;101119.75;4966735;28;102506;-57
2021/08/16 00:36:38;;;;;;;6.97;6.05;;;;;;;23.05;67.70;101114.19;4965508;28;102742;-57
2021/08/16 00:39:05;;;;;;;7.47;5.72;;;;;;;23.04;67.74;101118.09;4960103;28;102794;-57
2021/08/16 00:41:36;;;;;;;7.77;5.90;;;;;;;23.05;67.66;101119.75;4966396;28;103901;-57
2021/08/16 00:44:06;;;;;;;6.13;5.50;;;;;;;23.04;67.71;101123.66;4966174;28;102123;-58
2021/08/16 00:46:34;;;;;;;6.50;5.75;;;;;;;23.05;67.75;101118.94;4968369;28;102182;-57
2021/08/16 00:49:02;;;;;;;6.57;5.40;;;;;;;23.05;68.00;101116.16;4964206;28;102298;-57
2021/08/16 00:51:31;;;;;;;6.60;5.90;;;;;;;23.03;67.76;101117.31;4958576;28;104020;-58
2021/08/16 00:53:58;;;;;;;6.88;5.68;;;;;;;23.03;67.75;101122.84;4964186;28;103272;-58
2021/08/16 00:56:27;;;;;;;6.63;5.60;;;;;;;23.04;67.77;101123.66;4969207;28;102425;-58
2021/08/16 00:58:56;;;;;;;6.50;5.85;;;;;;;23.04;67.52;101118.09;4960179;28;102710;-58
2021/08/16 01:01:22;;;;;;;7.63;6.28;;;;;;;23.03;67.77;101110.94;4968256;28;103980;-57
2021/08/16 01:03:49;;;;;;;8.55;6.05;;;;;;;23.03;67.57;101113.72;4962922;28;102753;-58
2021/08/16 01:06:18;;;;;;;21.10;6.03;;;;;;;23.03;67.74;101110.94;4964170;28;105456;-57
2021/08/16 01:08:47;;;;;;;7.80;5.78;;;;;;;23.02;67.75;101117.66;4962769;28;102258;-58
2021/08/16 01:11:21;;;;;;;6.20;5.53;;;;;;;23.03;67.54;101116.50;4962453;28;104227;-57
2021/08/16 01:14:08;;;;;;;7.70;5.80;;;;;;;23.02;67.66;101109.34;4960312;28;103262;-57
2021/08/16 01:16:36;;;;;;;6.50;5.40;;;;;;;23.02;67.56;101110.13;4962228;28;102652;-58
2021/08/16 01:19:04;;;;;;;6.87;6.17;;;;;;;23.02;67.56;101103.78;4962833;28;102535;-58
2021/08/16 01:21:30;;;;;;;6.47;5.80;;;;;;;23.02;67.40;101112.09;4955042;28;103952;-57
2021/08/16 01:23:57;;;;;;;7.20;6.13;;;;;;;23.02;67.94;101103.78;4964490;28;101987;-58
2021/08/16 01:26:25;;;;;;;7.13;5.88;;;;;;;23.02;67.88;101098.22;4965692;28;101943;-57
2021/08/16 01:28:53;;;;;;;6.88;6.00;;;;;;;23.01;67.72;101102.16;4963319;28;103802;-57
2021/08/16 01:31:19;;;;;;;7.33;5.90;;;;;;;23.01;67.85;101105.75;4968473;28;103878;-57
2021/08/16 01:33:46;;;;;;;7.78;6.05;;;;;;;23.01;67.68;101097.44;4965937;28;102374;-58
2021/08/16 01:36:12;;;;;;;9.05;6.40;;;;;;;23.00;67.75;101106.06;4965446;28;102539;-58
2021/08/16 01:38:43;;;;;;;10.05;6.93;;;;;;;23.00;67.72;101103.31;4958871;28;103441;-58
2021/08/16 01:41:10;;;;;;;9.32;6.10;;;;;;;23.01;67.66;101093.84;4962994;28;103896;-57
2021/08/16 01:43:37;;;;;;;7.22;5.60;;;;;;;23.00;67.66;101090.22;4967290;28;103349;-58
2021/08/16 01:46:05;;;;;;;6.40;5.80;;;;;;;23.00;67.74;101094.97;4965226;28;102322;-58
2021/08/16 01:48:32;;;;;;;6.73;6.03;;;;;;;23.00;67.68;101094.97;4961900;28;102166;-58
2021/08/16 01:50:59;;;;;;;8.63;6.13;;;;;;;23.01;67.63;101099.41;4966805;28;103938;-58
2021/08/16 01:53:26;;;;;;;6.95;6.13;;;;;;;22.99;67.74;101096.13;4964326;28;102222;-58
2021/08/16 01:55:52;;;;;;;7.22;6.05;;;;;;;23.00;67.78;101089.44;4969521;28;102726;-57
2021/08/16 01:58:19;;;;;;;8.13;6.57;;;;;;;23.00;67.81;101092.19;4963218;28;103302;-57
2021/08/16 02:00:45;;;;;;;6.80;6.10;;;;;;;23.00;67.78;101094.97;4969769;28;103915;-57
2021/08/16 02:03:13;;;;;;;6.40;5.63;;;;;;;23.00;67.82;101094.97;4963044;28;102672;-57
2021/08/16 02:05:41;;;;;;;;;;;;;;;22.99;67.90;101102.50;4964139;28;102296;-57
2021/08/16 02:08:08;;;;;;;6.85;5.78;;;;;;;23.00;67.67;101100.53;4963751;28;102309;-57
2021/08/16 02:10:34;;;;;;;7.45;5.93;;;;;;;22.99;67.56;101098.91;4964473;28;102719;-58
2021/08/16 02:13:01;;;;;;;7.18;5.85;;;;;;;22.99;67.71;101098.91;4964919;28;102165;-58
2021/08/16 02:15:28;;;;;;;7.22;6.13;;;;;;;23.00;67.58;101106.06;4964525;28;102630;-58
2021/08/16 02:17:55;;;;;;;8.32;5.70;;;;;;;22.99;67.71;101090.59;4967345;28;102892;-58
2021/08/16 02:20:23;;;;;;;5.50;4.97;;;;;;;22.99;67.72;101101.69;4962489;28;103854;-58
2021/08/16 02:22:49;;;;;;;6.97;6.07;;;;;;;22.99;67.70;101101.69;4961506;28;102187;-57
2021/08/16 02:25:16;;;;;;;7.30;6.05;;;;;;;22.99;67.84;101101.69;4965589;28;102229;-58
2021/08/16 02:27:44;;;;;;;8.20;6.47;;;;;;;22.98;67.83;101097.31;4961361;28;102579;-58
2021/08/16 02:30:13;;;;;;;6.72;5.50;;;;;;;22.98;67.70;101100.09;4954393;28;103549;-57
2021/08/16 02:32:39;;;;;;;7.03;6.00;;;;;;;22.99;67.57;101098.91;4963005;28;102288;-58
2021/08/16 02:35:07;;;;;;;7.07;6.10;;;;;;;22.98;67.71;101097.31;4964625;28;102895;-58
2021/08/16 02:37:35;;;;;;;6.80;6.07;;;;;;;22.98;67.83;101098.13;4967359;28;102357;-57
2021/08/16 02:40:05;;;;;;;7.78;6.15;;;;;;;22.99;67.62;101098.91;4962263;28;103867;-59
2021/08/16 02:42:32;;;;;;;7.00;6.22;;;;;;;22.98;67.86;101091.75;4961281;28;102478;-57
2021/08/16 02:44:58;;;;;;;7.03;6.30;;;;;;;22.98;67.95;101097.31;4956962;28;102667;-58
2021/08/16 02:47:26;;;;;;;7.03;6.33;;;;;;;22.98;67.76;101091.75;4962559;28;102632;-58
2021/08/16 02:49:53;;;;;;;10.88;6.63;;;;;;;22.97;67.76;101095.66;4961483;28;104007;-58
2021/08/16 02:52:19;;;;;;;6.43;5.82;;;;;;;22.97;67.68;101101.22;4961309;28;102531;-58
2021/08/16 02:54:48;;;;;;;7.28;6.22;;;;;;;22.97;67.83;101102.06;4965962;28;102651;-57
2021/08/16 02:57:14;;;;;;;6.43;5.73;;;;;;;22.97;67.74;101096.50;4967731;28;102496;-58
2021/08/16 02:59:41;;;;;;;7.40;6.22;;;;;;;22.97;67.86;101104.81;4959604;28;103905;-58
2021/08/16 03:02:09;;;;;;;8.30;6.07;;;;;;;22.97;67.85;101112.31;4967472;28;102460;-58
2021/08/16 03:04:36;;;;;;;7.93;6.38;;;;;;;22.97;67.90;101101.22;4967257;28;102508;-58
2021/08/16 03:07:03;;;;;;;7.85;6.15;;;;;;;22.97;68.00;101101.22;4970657;28;102521;-57
2021/08/16 03:09:29;;;;;;;7.03;5.47;;;;;;;22.97;67.76;101106.78;4969166;28;104133;-57
2021/08/16 03:11:58;;;;;;;7.68;6.07;;;;;;;22.97;67.79;101102.06;4961970;28;102035;-58
2021/08/16 03:14:24;;;;;;;6.78;5.90;;;;;;;22.97;68.12;101106.78;4963138;28;102527;-58
2021/08/16 03:16:53;;;;;;;;;;;;;;;22.97;67.98;101112.31;4970051;28;102508;-58
2021/08/16 03:19:20;;;;;;;7.20;6.47;;;;;;;22.97;67.83;101106.78;4961527;28;104245;-58
2021/08/16 03:21:47;;;;;;;10.52;7.07;;;;;;;22.97;67.68;101117.88;4969052;28;102421;-58
2021/08/16 03:24:13;;;;;;;7.32;5.72;;;;;;;22.96;67.70;101119.03;4965890;28;102574;-58
2021/08/16 03:26:42;;;;;;;;;;;;;;;22.97;67.81;101117.88;4958630;28;102324;-58
2021/08/16 03:29:10;;;;;;;7.38;6.43;;;;;;;22.95;67.71;101120.19;4966877;28;104025;-58
2021/08/16 03:31:36;;;;;;;8.02;6.10;;;;;;;22.96;67.95;101116.25;4962510;28;103287;-57
2021/08/16 03:34:04;;;;;;;9.30;6.50;;;;;;;22.95;67.68;101122.97;4962514;28;102478;-58
2021/08/16 03:36:30;;;;;;;9.07;6.72;;;;;;;22.96;67.70;101127.38;4969838;28;102333;-58
2021/08/16 03:38:57;;;;;;;7.10;5.68;;;;;;;22.96;67.80;101127.38;4969290;28;104082;-58
2021/08/16 03:41:23;;;;;;;7.60;6.25;;;;;;;22.96;67.91;101127.38;4966777;28;102302;-57
2021/08/16 03:43:50;;;;;;;6.57;5.80;;;;;;;22.95;67.87;101120.19;4965281;28;102314;-58
2021/08/16 03:46:18;;;;;;;8.20;6.35;;;;;;;22.95;68.13;101125.75;4967354;28;102764;-58
2021/08/16 03:48:45;;;;;;;6.13;5.28;;;;;;;22.95;67.84;101125.75;4973323;28;104164;-58
2021/08/16 03:51:13;;;;;;;8.97;6.13;;;;;;;22.94;67.94;101124.94;4967235;28;102448;-58
2021/08/16 03:53:40;;;;;;;6.45;5.78;;;;;;;22.95;67.81;101125.75;4966988;28;102071;-58
2021/08/16 03:56:10;;;;;;;7.65;6.00;;;;;;;22.95;68.00;101126.56;4965315;28;102305;-58
2021/08/16 03:58:37;;;;;;;7.30;6.32;;;;;;;22.94;67.94;101121.38;4968333;28;104051;-58
2021/08/16 04:01:04;;;;;;;7.60;6.47;;;;;;;22.95;68.07;101123.78;4979444;28;102129;-57
2021/08/16 04:03:33;;;;;;;7.72;6.70;;;;;;;22.96;68.01;101128.16;4970403;28;102158;-58
2021/08/16 04:06:00;;;;;;;8.30;6.80;;;;;;;22.95;68.06;101117.44;4984314;28;102108;-57
2021/08/16 04:08:26;;;;;;;7.93;6.60;;;;;;;22.95;68.03;101120.19;4964201;28;104022;-58
2021/08/16 04:10:53;;;;;;;6.18;5.45;;;;;;;22.96;68.14;101124.59;4968758;28;103120;-57
2021/08/16 04:13:20;;;;;;;7.32;5.38;;;;;;;22.95;68.36;101125.75;4966991;28;102443;-58
2021/08/16 04:15:47;;;;;;;6.60;5.20;;;;;;;22.97;68.43;101123.41;4961448;28;102525;-58
2021/08/16 04:18:14;;;;;;;5.05;4.55;;;;;;;22.96;68.25;101127.38;4966482;28;103973;-57
2021/08/16 04:20:42;;;;;;;6.03;5.43;;;;;;;22.97;68.35;101120.66;4966880;28;102454;-58
2021/08/16 04:23:08;;;;;;;6.27;5.53;;;;;;;22.97;68.54;101128.97;4962643;28;102490;-58
2021/08/16 04:25:35;;;;;;;6.38;5.65;;;;;;;22.97;68.36;101126.19;4964111;28;102198;-58
2021/08/16 04:28:02;;;;;;;6.13;5.53;;;;;;;22.98;68.57;101125.06;4969136;28;103975;-58
2021/08/16 04:30:29;;;;;;;6.03;5.43;;;;;;;22.97;68.26;101127.03;4969405;28;102073;-58
2021/08/16 04:32:56;;;;;;;5.75;5.15;;;;;;;22.97;68.59;101128.97;4966830;28;102448;-58
2021/08/16 04:35:22;;;;;;;6.57;5.53;;;;;;;22.97;68.68;101123.41;4958082;28;102530;-58
2021/08/16 04:37:50;;;;;;;6.05;5.45;;;;;;;22.98;68.57;101130.63;4961470;28;103927;-58
2021/08/16 04:40:17;;;;;;;5.83;5.17;;;;;;;22.98;68.84;101125.06;4960454;28;103455;-58
2021/08/16 04:42:44;;;;;;;5.88;5.28;;;;;;;22.99;68.71;101133.03;4966121;28;102174;-58
2021/08/16 04:45:11;;;;;;;6.25;5.63;;;;;;;22.98;68.68;101138.94;4966864;28;102385;-58
2021/08/16 04:47:41;;;;;;;6.10;5.50;;;;;;;22.98;68.54;101139.75;4966971;28;103666;-58
2021/08/16 04:50:08;;;;;;;5.20;4.70;;;;;;;22.99;69.09;101135.00;4966395;28;102470;-58
2021/08/16 04:52:35;;;;;;;6.38;5.78;;;;;;;23.00;68.80;101137.41;4966686;28;102709;-57
2021/08/16 04:55:04;;;;;;;10.48;5.97;;;;;;;22.99;68.89;101132.22;4966919;28;102949;-58
2021/08/16 04:57:32;;;;;;;6.07;5.47;;;;;;;23.00;68.94;101144.94;4962224;28;103924;-58
2021/08/16 05:00:00;;;;;;;6.47;5.88;;;;;;;23.00;68.92;101147.72;4959756;28;102346;-58
2021/08/16 05:02:26;;;;;;;6.18;5.57;;;;;;;23.01;68.67;101147.38;4961768;28;102546;-58
2021/08/16 05:04:55;;;;;;;7.30;6.03;;;;;;;23.00;68.99;101144.94;4969205;28;102582;-58
2021/08/16 05:07:22;;;;;;;6.25;5.45;;;;;;;23.02;69.03;101153.75;4961087;28;103696;-58
2021/08/16 05:09:50;;;;;;;7.03;5.80;;;;;;;23.02;68.97;101153.75;4964149;28;102483;-58
2021/08/16 05:12:18;;;;;;;6.55;5.80;;;;;;;23.02;68.98;101156.53;4963517;28;102185;-58
2021/08/16 05:14:45;;;;;;;6.93;5.93;;;;;;;23.02;68.88;101156.53;4962930;28;102087;-58
2021/08/16 05:17:13;;;;;;;6.78;6.07;;;;;;;23.02;69.03;101154.56;4958180;28;103853;-58
2021/08/16 05:19:40;;;;;;;6.05;5.45;;;;;;;23.03;68.94;101152.59;4965278;28;102113;-57
2021/08/16 05:22:08;;;;;;;6.63;5.30;;;;;;;23.03;68.95;101155.34;4955803;28;102067;-57
2021/08/16 05:24:35;;;;;;;6.85;5.38;;;;;;;23.03;69.03;101158.94;4963530;28;102332;-59
2021/08/16 05:27:03;;;;;;;6.82;5.50;;;;;;;23.05;69.14;101152.25;4956136;28;103717;-57
2021/08/16 05:29:31;;;;;;;6.82;5.47;;;;;;;23.04;69.27;101156.97;4967280;28;102542;-57
2021/08/16 05:31:58;;;;;;;5.85;5.30;;;;;;;23.05;69.13;101152.25;4962525;28;102092;-58
2021/08/16 05:34:25;;;;;;;7.25;5.75;;;;;;;23.05;69.02;101144.72;4962129;28;102549;-58
2021/08/16 05:36:52;;;;;;;6.43;5.60;;;;;;;23.06;69.09;101143.56;4961896;28;104027;-58
2021/08/16 05:39:19;;;;;;;5.82;5.13;;;;;;;23.07;69.25;101144.38;4956167;28;102355;-58
2021/08/16 05:41:45;;;;;;;5.60;5.10;;;;;;;23.08;69.33;101144.03;4968297;28;102363;-58
2021/08/16 05:44:12;;;;;;;5.75;5.15;;;;;;;23.08;68.86;101146.81;4968557;28;102725;-58
2021/08/16 05:46:39;;;;;;;5.90;5.30;;;;;;;23.10;68.90;101144.50;4958080;28;104074;-58
2021/08/16 05:49:06;;;;;;;5.60;4.80;;;;;;;23.10;68.96;101143.69;4965903;28;102244;-57
2021/08/16 05:51:33;;;;;;;6.03;5.43;;;;;;;23.11;68.96;101145.28;4957964;28;102040;-57
2021/08/16 05:54:00;;;;;;;5.53;5.03;;;;;;;23.12;69.16;101146.94;4963247;28;102744;-58
2021/08/16 05:56:27;;;;;;;5.63;5.13;;;;;;;23.13;68.83;101148.56;4965135;28;104091;-57
2021/08/16 05:58:53;;;;;;;6.45;5.65;;;;;;;23.13;68.99;101132.69;4965019;28;102630;-58
2021/08/16 06:01:20;;;;;;;7.18;5.50;;;;;;;23.15;68.97;101137.88;4956756;28;102530;-57
2021/08/16 06:03:48;;;;;;;5.50;5.00;;;;;;;23.16;69.15;101143.13;4952309;28;102772;-57
2021/08/16 06:06:15;;;;;;;6.17;5.27;;;;;;;23.16;68.89;101148.66;4964966;28;103137;-58
2021/08/16 06:08:42;;;;;;;6.05;5.20;;;;;;;23.17;69.20;101150.28;4963219;28;102523;-57
2021/08/16 06:11:08;;;;;;;5.35;4.85;;;;;;;23.18;68.89;101149.13;4967126;28;102184;-57
2021/08/16 06:13:38;;;;;;;5.60;5.00;;;;;;;23.20;68.67;101154.34;4963217;28;102429;-59
2021/08/16 06:16:04;;;;;;;6.32;5.28;;;;;;;23.20;68.97;101155.16;4961721;28;103934;-58
2021/08/16 06:18:31;;;;;;;6.28;5.30;;;;;;;23.21;68.71;101162.31;4955245;28;106447;-58
2021/08/16 06:20:59;;;;;;;5.68;5.18;;;;;;;23.24;68.75;101160.81;4963268;28;102371;-57
2021/08/16 06:23:25;;;;;;;5.60;5.10;;;;;;;23.24;68.88;101152.47;4962053;28;103115;-58
2021/08/16 06:25:52;;;;;;;5.32;4.82;;;;;;;23.26;68.55;101156.53;4953072;28;103979;-57
2021/08/16 06:28:23;;;;;;;5.70;5.10;;;;;;;23.26;68.85;101159.31;4955515;28;102725;-58
2021/08/16 06:30:49;;;;;;;5.75;5.15;;;;;;;23.27;68.60;101158.16;4965071;28;102062;-58
2021/08/16 06:33:16;;;;;;;5.85;5.25;;;;;;;23.28;68.96;101158.97;4966941;28;102310;-58
2021/08/16 06:35:43;;;;;;;5.90;5.30;;;;;;;23.29;68.68;101162.53;4958738;28;104056;-58
2021/08/16 06:38:21;;;;;;;5.72;5.22;;;;;;;23.30;68.72;101159.44;4960267;28;102522;-58
2021/08/16 06:40:48;;;;;;;5.43;4.93;;;;;;;23.31;68.69;101154.69;4974095;28;102594;-58
2021/08/16 06:43:15;;;;;;;5.47;4.97;;;;;;;23.32;68.56;101159.06;4969240;28;102748;-57
2021/08/16 06:45:42;;;;;;;7.13;4.75;;;;;;;23.32;68.73;101156.31;4961642;28;103903;-58
2021/08/16 06:48:09;;;;;;;5.60;5.00;;;;;;;23.34;68.69;101154.00;4969285;28;102857;-58
2021/08/16 06:50:36;;;;;;;5.65;5.05;;;;;;;23.34;68.65;101156.78;4968331;28;102453;-58
2021/08/16 06:53:03;;;;;;;5.70;5.13;;;;;;;23.35;68.85;101153.63;4971634;28;103785;-58
2021/08/16 06:55:31;;;;;;;5.60;4.97;;;;;;;23.36;68.66;101149.69;4969324;28;103873;-58
2021/08/16 06:57:58;;;;;;;;;;;;;;;23.37;68.67;101154.13;4953007;28;103094;-58
2021/08/16 07:00:24;;;;;;;5.38;4.75;;;;;;;23.38;68.64;101152.16;4967789;28;102900;-58
2021/08/16 07:02:51;;;;;;;5.50;5.00;;;;;;;23.38;68.55;101149.38;4968770;28;103192;-58
2021/08/16 07:05:18;;;;;;;6.13;4.93;;;;;;;23.39;68.63;101145.41;4967047;28;103899;-58
2021/08/16 07:07:47;;;;;;;5.07;4.57;;;;;;;23.41;68.50;101149.47;4966754;28;102022;-58
2021/08/16 07:10:15;;;;;;;4.95;4.55;;;;;;;23.42;68.50;101150.28;4968681;28;102693;-57
2021/08/16 07:12:43;;;;;;;6.18;4.80;;;;;;;23.43;68.65;101151.91;4971292;28;102631;-58
2021/08/16 07:15:10;;;;;;;5.27;4.53;;;;;;;23.43;68.51;101146.34;4968814;28;103495;-58
2021/08/16 07:17:39;;;;;;;5.17;4.73;;;;;;;23.44;68.47;101145.19;4968874;28;102159;-58
2021/08/16 07:20:09;;;;;;;7.10;4.63;;;;;;;23.46;68.67;101153.97;4967086;28;101965;-58
2021/08/16 07:22:36;;;;;;;4.85;4.40;;;;;;;23.46;68.56;101153.97;4964808;28;102825;-58
2021/08/16 07:25:02;;;;;;;5.28;4.43;;;;;;;23.47;68.40;101152.81;4964155;28;103920;-58
2021/08/16 07:27:29;;;;;;;5.78;4.90;;;;;;;23.47;68.29;101156.41;4968875;28;103448;-58
2021/08/16 07:29:57;;;;;;;4.38;3.97;;;;;;;23.49;68.32;101151.31;4964314;28;102413;-57
2021/08/16 07:32:24;;;;;;;4.53;4.13;;;;;;;23.49;68.38;101154.09;4968582;28;102504;-57
2021/08/16 07:34:51;;;;;;;4.78;4.32;;;;;;;23.51;68.42;101153.72;4964268;28;104191;-58
2021/08/16 07:37:19;;;;;;;;;;;;;;;23.50;68.47;101158.47;4960388;28;102164;-57
2021/08/16 07:39:46;;;;;;;5.60;4.20;;;;;;;23.52;68.30;101152.59;4968098;28;102041;-58
2021/08/16 07:42:13;;;;;;;5.93;4.85;;;;;;;23.53;68.35;101154.22;4963292;28;102452;-58
2021/08/16 07:44:39;;;;;;;5.00;4.50;;;;;;;23.54;68.30;101152.22;4962599;28;103296;-58
2021/08/16 07:47:08;;;;;;;6.00;4.30;;;;;;;23.56;68.30;101155.50;4961828;28;102647;-58
2021/08/16 07:49:34;;;;;;;5.13;4.63;;;;;;;23.55;68.32;101151.91;4970136;28;102716;-57
2021/08/16 07:52:01;;;;;;;4.55;4.07;;;;;;;23.57;68.06;101155.13;4966817;28;102728;-57
2021/08/16 07:54:28;;;;;;;5.32;4.57;;;;;;;23.57;68.38;101155.13;4964370;28;103908;-57
2021/08/16 07:56:55;;;;;;;5.00;4.55;;;;;;;23.59;68.16;101154.78;4961143;28;102695;-57
2021/08/16 07:59:22;;;;;;;5.53;4.80;;;;;;;23.59;68.28;101154.78;4968059;28;102106;-57
2021/08/16 08:01:50;;;;;;;5.65;4.80;;;;;;;23.60;68.19;101145.28;4966705;28;102701;-57
2021/08/16 08:04:18;;;;;;;4.53;4.10;;;;;;;23.60;68.31;101148.88;4958775;28;103942;-58
2021/08/16 08:06:50;;;;;;;5.15;4.65;;;;;;;23.61;68.26;101146.91;4958258;28;102664;-57
2021/08/16 08:09:16;;;;;;;4.95;4.50;;;;;;;23.61;68.26;101146.91;4963557;28;102450;-58
2021/08/16 08:11:43;;;;;;;4.53;4.13;;;;;;;23.63;68.17;101144.59;4966932;28;102154;-57
2021/08/16 08:14:10;;;;;;;4.70;4.30;;;;;;;23.63;68.23;101145.41;4963287;28;104166;-58
2021/08/16 08:16:37;;;;;;;5.63;5.00;;;;;;;23.64;68.45;101140.66;4964550;28;102214;-57
2021/08/16 08:19:03;;;;;;;5.40;4.60;;;;;;;23.65;68.28;101142.25;4965681;28;103639;-58
2021/08/16 08:21:36;;;;;;;4.93;4.47;;;;;;;23.65;68.38;101143.06;4962036;28;102571;-58
2021/08/16 08:24:03;;;;;;;4.60;4.20;;;;;;;23.65;68.13;101145.84;4968532;28;105103;-57
2021/08/16 08:26:30;;;;;;;5.13;4.63;;;;;;;23.67;68.44;101145.53;4964537;28;104199;-58
2021/08/16 08:28:57;;;;;;;5.18;4.28;;;;;;;23.68;68.18;101155.50;4967898;28;102380;-57
2021/08/16 08:31:25;;;;;;;5.22;4.72;;;;;;;23.68;68.21;101158.28;4963512;28;102696;-58
2021/08/16 08:33:53;;;;;;;5.22;4.72;;;;;;;23.68;67.86;101145.19;4961368;28;104231;-58
2021/08/16 08:36:20;;;;;;;5.15;4.47;;;;;;;23.68;68.13;101147.97;4963678;28;103055;-58
2021/08/16 08:38:47;;;;;;;4.90;4.40;;;;;;;23.70;67.88;101140.09;4958523;28;102446;-57
2021/08/16 08:41:19;;;;;;;4.57;4.15;;;;;;;23.70;68.12;101145.66;4966982;28;102516;-57
2021/08/16 08:43:46;;;;;;;4.90;4.22;;;;;;;23.70;68.27;101151.22;4965594;28;103991;-57
2021/08/16 08:46:17;;;;;;;;;;;;;;;23.71;68.09;101146.47;4964116;28;102462;-57
2021/08/16 08:48:43;;;;;;;5.00;4.50;;;;;;;23.70;68.40;101140.09;4956480;28;102114;-58
2021/08/16 08:51:10;;;;;;;4.90;4.32;;;;;;;23.71;68.23;101147.25;4963237;28;102688;-57
2021/08/16 08:53:37;;;;;;;4.50;4.07;;;;;;;23.72;68.11;101145.28;4963384;28;104055;-58
2021/08/16 08:56:06;;;;;;;5.38;4.22;;;;;;;23.72;68.09;101137.75;4962268;28;102242;-56
2021/08/16 08:58:33;;;;;;;21.90;4.18;;;;;;;23.72;68.00;101131.41;4966625;28;102589;-58
2021/08/16 09:00:59;;;;;;;5.00;4.47;;;;;;;23.73;67.87;101133.03;4970168;28;102403;-57
2021/08/16 09:03:26;;;;;;;7.43;4.28;;;;;;;23.72;68.18;101134.97;4974428;28;103866;-58
2021/08/16 09:05:54;;;;;;;4.40;3.97;;;;;;;23.73;67.91;101133.84;4978876;28;102804;-57
2021/08/16 09:08:26;;;;;;;5.13;4.47;;;;;;;23.73;68.10;101128.28;4977247;28;102303;-58
2021/08/16 09:11:03;;;;;;;;;;;;;;;23.73;68.07;101122.72;4976356;28;104119;-58
2021/08/16 09:13:31;;;;;;;4.65;4.25;;;;;;;23.73;68.10;101128.28;4964755;28;103032;-57
2021/08/16 09:16:07;;;;;;;4.87;4.20;;;;;;;23.74;68.02;101129.91;4956006;28;104304;-57
2021/08/16 09:18:34;;;;;;;13.70;4.13;;;;;;;23.74;68.30;101121.56;4964904;28;102190;-57
2021/08/16 09:21:02;;;;;;;4.95;4.28;;;;;;;23.74;68.03;101124.34;4961611;28;102651;-57
2021/08/16 09:23:40;;;;;;;7.45;4.35;;;;;;;23.74;68.24;101116.00;4964590;28;103831;-58
2021/08/16 09:26:07;;;;;;;5.15;4.65;;;;;;;23.76;68.04;101123.16;4966639;28;102664;-56
2021/08/16 09:28:35;;;;;;;5.75;4.07;;;;;;;23.74;68.20;101107.66;4963537;28;102063;-57
2021/08/16 09:31:10;;;;;;;5.13;4.33;;;;;;;23.73;68.01;101111.63;4957849;28;102942;-57
2021/08/16 09:33:37;;;;;;;5.35;4.45;;;;;;;23.74;68.10;101106.88;4963594;28;105021;-56
2021/08/16 09:36:04;;;;;;;5.22;4.53;;;;;;;23.74;68.22;101102.09;4955553;28;102898;-57
2021/08/16 09:38:35;;;;;;;5.13;4.57;;;;;;;23.74;68.03;101101.31;4962855;28;102945;-57
2021/08/16 09:41:03;;;;;;;5.60;5.00;;;;;;;23.74;68.14;101098.53;4961962;28;102657;-57
2021/08/16 09:43:29;;;;;;;5.10;4.60;;;;;;;23.75;68.07;101089.03;4966102;28;104200;-58
2021/08/16 09:45:58;;;;;;;5.25;4.70;;;;;;;23.73;68.18;101083.81;4967605;28;102411;-57
2021/08/16 09:48:25;;;;;;;5.95;4.97;;;;;;;23.74;68.14;101084.63;4964063;28;102022;-58
2021/08/16 09:50:54;;;;;;;5.07;4.63;;;;;;;23.74;68.07;101085.44;4963911;28;102675;-58
2021/08/16 09:53:22;;;;;;;5.95;5.18;;;;;;;23.73;68.21;101083.81;4963123;28;103943;-57
2021/08/16 09:55:50;;;;;;;5.45;4.95;;;;;;;23.72;68.01;101079.41;4967550;28;102536;-58
2021/08/16 09:58:18;;;;;;;5.85;4.82;;;;;;;23.73;68.13;101078.25;4960067;28;102145;-58
2021/08/16 10:00:49;;;;;;;5.53;4.93;;;;;;;23.72;68.31;101084.97;4965426;28;102703;-57
2021/08/16 10:03:17;;;;;;;4.97;4.47;;;;;;;23.72;67.91;101082.19;4966986;28;104725;-57
2021/08/16 10:05:49;;;;;;;5.55;4.95;;;;;;;23.72;68.03;101084.97;4962974;28;102510;-57
2021/08/16 10:08:22;;;;;;;5.57;4.97;;;;;;;23.72;68.02;101082.19;4963317;28;102506;-57
2021/08/16 10:10:52;;;;;;;5.28;4.78;;;;;;;23.72;68.13;101082.19;4961971;28;102598;-57
2021/08/16 10:13:22;;;;;;;5.45;4.85;;;;;;;23.71;68.22;101079.78;4966007;28;104013;-57
2021/08/16 10:15:52;;;;;;;5.30;4.80;;;;;;;23.71;67.72;101086.13;4964166;28;102139;-57
2021/08/16 10:18:24;;;;;;;5.13;4.63;;;;;;;23.71;67.97;101079.78;4966284;28;102826;-57
2021/08/16 10:20:52;;;;;;;5.50;5.00;;;;;;;23.71;68.19;101080.56;4967204;28;102681;-57
2021/08/16 10:23:21;;;;;;;6.28;4.90;;;;;;;23.70;68.31;101076.19;4967089;28;103919;-57
2021/08/16 10:25:50;;;;;;;5.60;5.10;;;;;;;23.70;68.20;101073.41;4961622;28;102297;-57
2021/08/16 10:28:25;;;;;;;5.53;4.88;;;;;;;23.71;67.96;101077.78;4961499;28;102641;-57
2021/08/16 10:30:52;;;;;;;5.82;5.22;;;;;;;23.71;67.97;101079.78;4971550;28;102831;-57
2021/08/16 10:33:21;;;;;;;5.50;4.90;;;;;;;23.70;68.04;101067.03;4970377;28;104019;-57
2021/08/16 10:35:48;;;;;;;5.57;5.00;;;;;;;23.69;68.23;101066.25;4961051;28;102119;-57
2021/08/16 10:38:17;;;;;;;5.10;4.60;;;;;;;23.69;68.12;101065.41;4959574;28;102239;-57
2021/08/16 10:40:45;;;;;;;6.18;5.22;;;;;;;23.69;68.06;101071.81;4963613;28;102603;-57
2021/08/16 10:43:13;;;;;;;4.68;4.22;;;;;;;23.70;68.05;101070.63;4957828;28;104090;-57
2021/08/16 10:45:56;;;;;;;5.18;4.68;;;;;;;23.69;67.92;101066.25;4964753;28;102363;-57
2021/08/16 10:48:26;;;;;;;5.03;4.38;;;;;;;23.69;67.86;101063.47;4959226;28;102162;-57
2021/08/16 10:51:04;;;;;;;5.68;5.13;;;;;;;23.69;67.61;101057.91;4963453;28;102301;-57
2021/08/16 10:53:31;;;;;;;5.38;4.85;;;;;;;23.68;67.81;101059.03;4962257;28;104598;-57
2021/08/16 10:55:58;;;;;;;5.75;5.15;;;;;;;23.69;67.77;101065.41;4957135;28;102554;-57
2021/08/16 10:58:25;;;;;;;5.30;4.80;;;;;;;23.67;67.62;101057.44;4957333;28;102298;-57
2021/08/16 11:00:52;;;;;;;5.60;5.10;;;;;;;23.67;67.96;101056.63;4958637;28;102344;-58
2021/08/16 11:03:22;;;;;;;6.57;4.80;;;;;;;23.67;67.67;101057.44;4961297;28;103890;-57
2021/08/16 11:05:50;;;;;;;6.07;5.00;;;;;;;23.68;67.69;101058.25;4957130;28;102648;-57
2021/08/16 11:08:17;;;;;;;5.03;4.57;;;;;;;23.66;67.68;101050.25;4967489;28;102411;-57
2021/08/16 11:10:50;;;;;;;5.85;5.25;;;;;;;23.66;67.46;101053.00;4966577;28;103395;-57
2021/08/16 11:13:18;;;;;;;4.82;4.43;;;;;;;23.66;67.45;101044.69;4964535;28;104051;-57
2021/08/16 11:15:48;;;;;;;5.97;5.18;;;;;;;23.66;67.52;101043.88;4957001;28;102517;-57
2021/08/16 11:18:18;;;;;;;6.45;5.03;;;;;;;23.65;67.60;101036.69;4966952;28;102515;-57
2021/08/16 11:20:46;;;;;;;6.60;5.18;;;;;;;23.64;67.32;101041.44;4964166;28;102834;-57
2021/08/16 11:23:20;;;;;;;5.55;4.93;;;;;;;23.65;67.37;101031.94;4960017;28;103917;-57